CST,Max TemperatureF,Mean TemperatureF,Min TemperatureF,Max Dew PointF,MeanDew PointF,Min DewpointF,Max Humidity, Mean Humidity, Min Humidity, Max Sea Level PressureIn, Mean Sea Level PressureIn, Min Sea Level PressureIn, Max VisibilityMiles, Mean VisibilityMiles, Min VisibilityMiles, Max Wind SpeedMPH, Mean Wind SpeedMPH, Max Gust SpeedMPH,PrecipitationIn, CloudCover, Events, WindDirDegrees
2011-11-1,77,59,41,48,40,34,93,58,21,30.21,30.14,30.07,10,10,10,14,3,18,0.00,0,,158
2011-11-2,80,66,51,59,52,43,94,64,39,30.16,30.06,29.97,10,10,7,17,7,29,0.11,3,Rain,175
2011-11-3,59,50,42,41,28,16,67,45,19,30.32,30.25,30.18,10,10,10,20,11,30,0.00,1,,320
2011-11-4,64,48,32,41,33,25,93,61,32,30.26,30.18,30.11,10,10,10,8,1,,0.00,0,,41
2011-11-5,68,54,41,50,42,37,93,64,33,30.15,30.05,29.95,10,10,5,17,6,22,0.00,1,,142
2011-11-6,78,69,60,59,55,50,77,63,44,30.11,30.04,30.00,10,10,10,17,9,22,0.00,6,,155
2011-11-7,78,71,64,61,60,59,88,72,51,30.13,30.06,29.98,10,10,7,20,11,25,0.00,6,,154
2011-11-8,75,68,62,68,62,54,94,81,69,30.02,29.93,29.83,10,10,2,15,10,22,0.38,8,Rain-Thunderstorm,159
2011-11-9,60,52,44,50,37,32,88,60,36,30.32,30.22,30.09,10,10,10,13,6,23,0.00,1,,336
2011-11-10,62,48,35,34,30,25,87,50,24,30.45,30.37,30.30,10,10,10,10,3,20,0.00,0,,341
2011-11-11,66,49,32,36,29,23,100,55,19,30.28,30.20,30.10,10,10,10,13,3,18,0.00,0,,198
2011-11-12,71,58,44,54,48,39,93,64,50,30.10,30.01,29.92,10,10,10,18,8,28,0.00,1,,182
2011-11-13,80,71,62,61,58,54,88,67,42,29.95,29.90,29.82,10,10,10,14,8,23,0.00,5,,201
2011-11-14,80,74,69,64,62,57,83,70,45,29.93,29.86,29.79,10,10,7,13,8,23,0.00,5,,193
2011-11-15,73,68,62,66,64,61,94,82,73,29.83,29.78,29.70,10,10,7,10,6,,0.00,6,Rain-Thunderstorm,176
2011-11-16,69,61,53,63,58,39,100,89,58,30.26,29.91,29.73,10,5,0,15,3,26,0.01,8,Fog-Rain,15
2011-11-17,57,48,39,37,32,23,81,56,27,30.46,30.37,30.27,10,10,10,10,6,,0.00,0,,21
2011-11-18,62,47,32,39,32,30,93,59,30,30.30,30.18,30.05,10,10,10,13,4,18,0.00,1,,159
2011-11-19,75,65,55,63,58,50,88,75,64,30.03,29.97,29.91,10,10,7,17,10,28,0.00,6,,174
2011-11-20,80,76,71,68,65,61,88,72,51,30.12,30.06,30.00,10,10,7,12,8,17,0.00,5,,185
2011-11-21,80,72,64,66,64,61,88,75,54,30.14,30.06,29.90,10,8,4,16,8,21,0.00,6,Rain,175
2011-11-22,71,58,46,64,49,45,94,84,73,30.21,30.06,29.89,10,9,1,13,7,21,0.83,7,Rain-Thunderstorm,316
2011-11-23,64,53,42,50,45,41,100,80,49,30.31,30.25,30.21,10,7,0,8,1,,0.00,2,Fog,22
2011-11-24,51,48,44,46,45,43,100,91,76,30.36,30.30,30.25,10,4,0,8,3,,0.00,7,Fog,102
2011-11-25,69,53,37,55,47,36,100,77,49,30.20,30.09,29.95,10,7,0,15,3,22,0.00,5,Fog-Rain,164
2011-11-26,64,57,50,61,55,39,94,86,66,30.08,29.94,29.87,10,9,2,17,8,26,0.52,7,Rain,218
2011-11-27,50,44,37,37,28,23,66,52,40,30.23,30.17,30.09,10,10,10,16,9,25,0.00,1,,325
2011-11-28,51,40,30,28,25,21,75,58,30,30.16,30.10,30.02,10,10,10,10,4,,0.00,0,,324
2011-11-29,60,45,30,32,28,19,93,58,25,30.20,30.12,30.06,10,9,7,14,3,18,0.00,0,,313
2011-11-30,59,46,33,34,30,23,93,64,25,30.27,30.20,30.13,10,10,7,6,2,,0.00,0,,80